Time;durP1;ratioP1;P1;durP2;ratioP2;P2;SDS_P1;SDS_P2;PMS_P1;PMS_P2;Temp;Humidity;BMP_temperature;BMP_pressure;BME280_temperature;BME280_humidity;BME280_pressure;Samples;Min_cycle;Max_cycle;Signal;HPM_P1;HPM_P2
2021/12/10 00:01:48;;;;;;;5.57;2.20;;;;;;;2.09;100.00;151903.94;5066965;28;20448;-75
2021/12/10 00:04:31;;;;;;;3.87;2.60;;;;;;;2.06;100.00;151896.28;5071162;28;20467;-75
2021/12/10 00:07:10;;;;;;;2.73;2.03;;;;;;;2.03;100.00;151887.25;5052767;28;20435;-75
2021/12/10 00:09:48;;;;;;;2.87;2.43;;;;;;;2.01;100.00;151883.44;5058962;28;20443;-75
2021/12/10 00:12:26;;;;;;;3.73;2.23;;;;;;;1.96;100.00;151869.28;5053386;28;20451;-75
2021/12/10 00:15:02;;;;;;;4.97;2.40;;;;;;;1.94;100.00;151865.41;5087452;28;20621;-75
2021/12/10 00:17:39;;;;;;;3.47;2.40;;;;;;;1.90;100.00;151853.84;5101894;28;20955;-74
2021/12/10 00:20:16;;;;;;;3.33;2.30;;;;;;;1.84;100.00;151839.72;5072744;28;20446;-74
2021/12/10 00:22:57;;;;;;;3.10;2.07;;;;;;;1.83;100.00;151838.41;5072676;28;20438;-75
2021/12/10 00:25:38;;;;;;;4.87;1.87;;;;;;;1.76;100.00;151819.13;5056665;28;20848;-74
2021/12/10 00:28:19;;;;;;;4.80;2.30;;;;;;;1.80;100.00;151829.44;5053860;28;20447;-75
2021/12/10 00:31:05;;;;;;;3.60;1.87;;;;;;;1.75;100.00;151816.56;5069361;28;20475;-75
2021/12/10 00:33:46;;;;;;;6.53;2.43;;;;;;;1.67;100.00;151797.28;5037318;28;20439;-74
2021/12/10 00:36:22;;;;;;;6.57;2.60;;;;;;;1.63;100.00;151785.72;5036849;28;20450;-74
2021/12/10 00:39:01;;;;;;;3.47;2.30;;;;;;;1.66;100.00;151793.44;5052574;28;20439;-75
2021/12/10 00:41:37;;;;;;;2.87;1.93;;;;;;;1.63;100.00;151785.72;5080318;28;20782;-75
2021/12/10 00:44:12;;;;;;;2.27;1.90;;;;;;;1.56;100.00;151767.75;5070599;28;20471;-75
2021/12/10 00:46:48;;;;;;;2.57;1.90;;;;;;;1.55;100.00;151765.16;5058928;28;20450;-75
2021/12/10 00:49:25;;;;;;;2.97;2.23;;;;;;;1.51;100.00;151754.91;5060715;28;20448;-74
2021/12/10 00:52:01;;;;;;;4.23;1.83;;;;;;;1.49;100.00;151749.72;5069629;28;20442;-74
2021/12/10 00:54:37;;;;;;;2.20;2.00;;;;;;;1.44;100.00;151736.88;5085946;28;20473;-75
2021/12/10 00:57:13;;;;;;;3.60;2.10;;;;;;;1.41;100.00;151730.47;5065224;28;20944;-75
2021/12/10 00:59:50;;;;;;;2.10;1.90;;;;;;;1.39;100.00;151724.03;5036379;28;20961;-75
2021/12/10 01:02:26;;;;;;;3.13;1.90;;;;;;;1.35;100.00;151713.78;5037870;28;20439;-75
2021/12/10 01:05:05;;;;;;;2.40;1.83;;;;;;;1.34;100.00;151711.19;5086349;28;20474;-75
2021/12/10 01:07:40;;;;;;;3.40;1.90;;;;;;;1.34;100.00;151711.19;5066386;28;20434;-75
2021/12/10 01:10:20;;;;;;;3.33;1.83;;;;;;;1.32;100.00;151707.38;5058605;28;20462;-74
2021/12/10 01:12:59;;;;;;;2.27;1.77;;;;;;;1.29;100.00;151698.38;5085650;28;20497;-75
2021/12/10 01:15:48;;;;;;;4.50;2.40;;;;;;;1.29;100.00;151698.38;5086115;28;20440;-75
2021/12/10 01:24:33;;;;;;;3.60;2.47;;;;;;;1.12;100.00;151655.97;5104546;28;20466;-75
2021/12/10 01:27:14;;;;;;;2.00;1.70;;;;;;;1.09;100.00;151649.53;5047557;28;20442;-75
2021/12/10 01:29:52;;;;;;;2.10;1.70;;;;;;;1.05;100.00;151639.28;5071458;28;20442;-74
2021/12/10 01:32:30;;;;;;;3.23;1.67;;;;;;;1.04;100.00;151636.69;5071091;28;20967;-74
2021/12/10 01:35:08;;;;;;;2.57;1.77;;;;;;;1.01;100.00;151628.97;5055615;28;20444;-75
2021/12/10 01:37:45;;;;;;;2.40;1.53;;;;;;;0.99;100.00;151623.84;5066163;28;20457;-74
2021/12/10 01:40:24;;;;;;;3.17;1.90;;;;;;;0.98;100.00;151621.28;5043247;28;20447;-75
2021/12/10 01:43:06;;;;;;;5.80;1.80;;;;;;;0.96;100.00;151616.16;5101040;28;20434;-74
2021/12/10 01:45:47;;;;;;;2.77;2.00;;;;;;;0.94;100.00;151611.03;5097151;28;20953;-74
2021/12/10 01:48:24;;;;;;;2.63;1.73;;;;;;;0.93;100.00;151608.44;5035367;28;20485;-74
2021/12/10 01:51:01;;;;;;;4.03;1.90;;;;;;;0.94;100.00;151609.72;5084798;28;20442;-75
2021/12/10 01:53:40;;;;;;;2.80;2.33;;;;;;;0.95;100.00;151612.31;5052493;28;20439;-74
2021/12/10 01:56:18;;;;;;;2.70;1.87;;;;;;;0.90;100.00;151600.72;5091126;28;20431;-75
2021/12/10 01:58:54;;;;;;;2.67;1.73;;;;;;;0.88;100.00;151595.59;5081884;28;20443;-74
2021/12/10 02:01:33;;;;;;;2.67;1.90;;;;;;;0.86;100.00;151589.19;5050908;28;20446;-74
2021/12/10 02:04:11;;;;;;;2.97;2.03;;;;;;;0.83;100.00;151582.75;5051184;28;20818;-74
2021/12/10 02:06:47;;;;;;;2.70;1.57;;;;;;;0.84;100.00;151584.06;5037542;28;20470;-74
2021/12/10 02:09:24;;;;;;;3.57;1.57;;;;;;;0.82;100.00;151580.16;5066842;28;20448;-74
2021/12/10 02:11:59;;;;;;;1.50;1.20;;;;;;;0.84;100.00;151584.06;5084539;28;20449;-74
2021/12/10 02:14:35;;;;;;;1.97;1.37;;;;;;;0.81;100.00;151576.34;5085399;28;20544;-74
2021/12/10 02:17:11;;;;;;;2.07;1.40;;;;;;;0.79;100.00;151572.50;5067995;28;20942;-74
2021/12/10 02:19:46;;;;;;;3.07;1.83;;;;;;;0.81;100.00;151577.63;5053908;28;20482;-74
2021/12/10 02:22:23;;;;;;;2.53;1.40;;;;;;;0.75;100.00;151562.22;5084546;28;20960;-74
2021/12/10 02:24:59;;;;;;;2.90;1.70;;;;;;;0.73;100.00;151557.09;5051134;28;20478;-74
2021/12/10 02:27:35;;;;;;;2.40;1.20;;;;;;;0.72;100.00;151554.50;5051083;28;20454;-74
2021/12/10 02:30:13;;;;;;;2.87;1.53;;;;;;;0.80;99.19;151575.03;5067897;28;20500;-74
2021/12/10 02:32:48;;;;;;;3.63;2.10;;;;;;;0.86;98.26;151590.47;5084522;28;20445;-74
2021/12/10 02:35:25;;;;;;;2.77;2.07;;;;;;;0.87;97.91;151591.75;5083590;28;20492;-74
2021/12/10 02:38:03;;;;;;;5.83;2.10;;;;;;;0.79;98.48;151572.50;5034955;28;20441;-74
2021/12/10 02:40:39;;;;;;;2.10;1.63;;;;;;;0.72;98.93;151554.50;5099959;28;20448;-74
2021/12/10 02:43:15;;;;;;;4.90;1.90;;;;;;;0.68;99.01;151544.25;5098599;28;20536;-74
2021/12/10 02:45:54;;;;;;;1.93;1.67;;;;;;;0.67;99.26;151541.66;5047551;28;20964;-74
2021/12/10 02:48:30;;;;;;;4.07;1.70;;;;;;;0.64;99.64;151533.94;5088159;28;20444;-74
2021/12/10 02:51:07;;;;;;;3.17;2.00;;;;;;;0.70;99.65;151548.09;5056078;28;20436;-74
2021/12/10 02:53:45;;;;;;;2.53;1.90;;;;;;;0.69;99.53;151545.53;5058315;28;20464;-74
2021/12/10 02:56:23;;;;;;;2.30;1.90;;;;;;;0.61;100.00;151526.25;5074097;28;20444;-74
2021/12/10 02:59:00;;;;;;;5.03;1.77;;;;;;;0.56;100.00;151513.41;5069354;28;20839;-74
2021/12/10 03:01:38;;;;;;;5.13;2.37;;;;;;;0.54;100.00;151509.59;5100659;28;20474;-74
2021/12/10 03:04:14;;;;;;;2.77;1.73;;;;;;;0.52;100.00;151503.16;5054867;28;20490;-74
2021/12/10 03:06:53;;;;;;;3.70;1.80;;;;;;;0.48;100.00;151492.88;5056146;28;20547;-74
2021/12/10 03:09:30;;;;;;;2.43;2.00;;;;;;;0.53;100.00;151507.00;5058220;28;20454;-74
2021/12/10 03:12:07;;;;;;;3.67;2.43;;;;;;;0.56;100.00;151514.69;5073967;28;20437;-74
2021/12/10 03:14:45;;;;;;;4.90;2.10;;;;;;;0.57;99.75;151516.00;5077368;28;20564;-74
2021/12/10 03:17:23;;;;;;;3.67;2.23;;;;;;;0.46;100.00;151489.03;5073163;28;20441;-74
2021/12/10 03:19:59;;;;;;;4.63;2.47;;;;;;;0.41;100.00;151474.91;5074283;28;20834;-74
2021/12/10 03:22:36;;;;;;;3.07;1.70;;;;;;;0.39;100.00;151469.78;5057304;28;20865;-74
2021/12/10 03:25:16;;;;;;;4.87;1.80;;;;;;;0.36;100.00;151462.09;5054738;28;20518;-75
2021/12/10 03:27:51;;;;;;;3.60;2.40;;;;;;;0.32;100.00;151453.06;5038469;28;20564;-74
2021/12/10 03:30:31;;;;;;;3.90;2.00;;;;;;;0.28;100.00;151442.84;5053707;28;20480;-74
2021/12/10 03:33:07;;;;;;;3.23;2.47;;;;;;;0.25;100.00;151433.84;5053985;28;20447;-74
2021/12/10 03:35:46;;;;;;;3.90;2.47;;;;;;;0.24;100.00;151432.53;5043765;28;20810;-74
2021/12/10 03:38:24;;;;;;;5.00;2.07;;;;;;;0.25;100.00;151433.84;5041760;28;20451;-74
2021/12/10 03:41:01;;;;;;;2.77;1.70;;;;;;;0.18;100.00;151415.88;5107884;28;20442;-74
2021/12/10 03:43:37;;;;;;;2.50;1.90;;;;;;;0.18;100.00;151415.88;5048326;28;20469;-74
2021/12/10 03:46:14;;;;;;;3.07;2.00;;;;;;;0.17;100.00;151413.28;5093979;28;20463;-74
2021/12/10 03:48:49;;;;;;;2.60;2.27;;;;;;;0.19;100.00;151418.41;5053711;28;20453;-74
2021/12/10 03:51:26;;;;;;;4.43;2.53;;;;;;;0.21;100.00;151423.59;5052931;28;20733;-74
2021/12/10 03:54:01;;;;;;;4.20;2.47;;;;;;;0.15;100.00;151409.47;5054307;28;20439;-74
2021/12/10 03:56:40;;;;;;;2.67;2.17;;;;;;;0.30;99.74;151447.97;5065921;28;20469;-74
2021/12/10 03:59:17;;;;;;;7.27;3.50;;;;;;;0.29;99.16;151444.13;5107218;28;20439;-75
2021/12/10 04:01:55;;;;;;;5.40;3.27;;;;;;;0.28;99.18;151441.53;5056949;28;20447;-75
2021/12/10 04:04:34;;;;;;;5.20;2.90;;;;;;;0.25;99.58;151433.84;5088488;28;20464;-75
2021/12/10 04:07:12;;;;;;;4.50;2.70;;;;;;;0.16;99.83;151412.00;5089558;28;20447;-75
2021/12/10 04:09:48;;;;;;;6.80;3.53;;;;;;;0.12;100.00;151400.47;5060214;28;20461;-75
2021/12/10 04:12:25;;;;;;;3.40;2.50;;;;;;;0.07;99.97;151387.63;5045648;28;20460;-75
2021/12/10 04:15:01;;;;;;;4.10;2.80;;;;;;;-0.01;100.00;151368.41;5085989;28;20423;-75
2021/12/10 04:17:38;;;;;;;2.73;2.40;;;;;;;-0.02;100.00;151367.09;5063246;28;20445;-75
2021/12/10 04:20:14;;;;;;;4.40;2.97;;;;;;;-0.06;100.00;151356.88;5072676;28;20528;-75
2021/12/10 04:22:52;;;;;;;5.47;3.03;;;;;;;0.00;100.00;151372.22;5067576;28;20552;-75
2021/12/10 04:25:28;;;;;;;5.10;3.27;;;;;;;0.07;99.91;151388.94;5073102;28;20461;-75
2021/12/10 04:28:09;;;;;;;6.60;3.80;;;;;;;0.03;100.00;151377.41;5057249;28;20426;-75
2021/12/10 04:30:46;;;;;;;9.90;4.40;;;;;;;-0.07;100.00;151354.28;5059401;28;20487;-75
2021/12/10 04:33:25;;;;;;;7.80;4.50;;;;;;;-0.01;100.00;151368.41;5060759;28;20445;-75
2021/12/10 04:36:02;;;;;;;5.40;4.23;;;;;;;-0.11;100.00;151342.75;5092493;28;20883;-75
2021/12/10 04:38:38;;;;;;;6.43;4.90;;;;;;;-0.10;100.00;151346.56;5086726;28;20450;-75
2021/12/10 04:41:14;;;;;;;6.23;4.13;;;;;;;-0.09;100.00;151347.88;5027335;28;20457;-75
2021/12/10 04:43:52;;;;;;;8.20;5.17;;;;;;;-0.18;100.00;151326.03;5065347;28;20438;-75
2021/12/10 04:46:28;;;;;;;6.87;5.17;;;;;;;-0.16;100.00;151331.16;5092684;28;20466;-75
2021/12/10 04:49:07;;;;;;;15.03;6.57;;;;;;;-0.22;100.00;151315.81;5053214;28;20448;-75
2021/12/10 04:51:49;;;;;;;7.90;5.00;;;;;;;-0.16;100.00;151329.91;5083536;28;20826;-74
2021/12/10 04:54:27;;;;;;;6.93;4.33;;;;;;;-0.23;100.00;151311.94;5085134;28;20476;-75
2021/12/10 04:57:04;;;;;;;5.00;3.77;;;;;;;-0.22;100.00;151315.81;5046884;28;20499;-75
2021/12/10 04:59:41;;;;;;;6.90;3.97;;;;;;;-0.22;100.00;151315.81;5085688;28;20461;-75
2021/12/10 05:02:18;;;;;;;6.10;3.90;;;;;;;-0.24;100.00;151310.63;5051164;28;20437;-75
2021/12/10 05:04:57;;;;;;;6.13;4.23;;;;;;;-0.20;100.00;151320.91;5052277;28;20572;-75
2021/12/10 05:07:36;;;;;;;6.87;4.60;;;;;;;-0.24;100.00;151310.63;5085765;28;20435;-75
2021/12/10 05:10:13;;;;;;;6.17;3.90;;;;;;;-0.23;100.00;151313.22;5059973;28;20547;-75
2021/12/10 05:12:49;;;;;;;5.37;3.77;;;;;;;-0.26;100.00;151304.22;5045567;28;20457;-74
2021/12/10 05:15:28;;;;;;;6.67;4.30;;;;;;;-0.35;100.00;151281.16;5097702;28;20455;-75
2021/12/10 05:18:04;;;;;;;7.93;4.77;;;;;;;-0.43;100.00;151261.94;5090152;28;20464;-75
2021/12/10 05:20:43;;;;;;;8.57;5.23;;;;;;;-0.40;100.00;151269.63;5099577;28;20818;-75
2021/12/10 05:23:19;;;;;;;5.77;4.03;;;;;;;-0.30;100.00;151295.28;5077931;28;20472;-75
2021/12/10 05:25:55;;;;;;;6.30;3.83;;;;;;;-0.38;100.00;151273.44;5068050;28;20484;-75
2021/12/10 05:28:30;;;;;;;7.60;4.80;;;;;;;-0.40;100.00;151269.63;5071762;28;20999;-75
2021/12/10 05:31:07;;;;;;;7.37;5.00;;;;;;;-0.47;100.00;151251.63;5071096;28;20474;-75
2021/12/10 05:33:43;;;;;;;7.97;5.10;;;;;;;-0.46;100.00;151252.94;5070495;28;20448;-75
2021/12/10 05:36:19;;;;;;;10.27;5.07;;;;;;;-0.50;100.00;151242.69;5069247;28;20938;-75
2021/12/10 05:38:55;;;;;;;7.53;4.50;;;;;;;-0.48;100.00;151249.09;5054403;28;20459;-75
2021/12/10 05:41:31;;;;;;;7.17;5.00;;;;;;;-0.58;100.00;151223.41;5040289;28;20452;-75
2021/12/10 05:44:06;;;;;;;7.17;5.10;;;;;;;-0.55;100.00;151229.81;5069255;28;20434;-75
2021/12/10 05:46:43;;;;;;;7.10;4.90;;;;;;;-0.55;100.00;151229.81;5051155;28;20454;-75
2021/12/10 05:49:19;;;;;;;9.30;4.77;;;;;;;-0.50;100.00;151242.69;5068936;28;20444;-75
2021/12/10 05:51:55;;;;;;;6.87;5.30;;;;;;;-0.51;100.00;151241.41;5052070;28;20484;-75
2021/12/10 05:54:30;;;;;;;8.93;4.30;;;;;;;-0.53;100.00;151236.22;5091760;28;20460;-75
2021/12/10 05:57:06;;;;;;;6.60;5.13;;;;;;;-0.52;100.00;151238.81;5066136;28;20439;-75
2021/12/10 05:59:41;;;;;;;7.40;5.03;;;;;;;-0.51;100.00;151240.09;5104986;28;20444;-75
2021/12/10 06:02:19;;;;;;;10.60;6.00;;;;;;;-0.54;100.00;151232.41;5101095;28;20960;-75
2021/12/10 06:04:54;;;;;;;11.57;5.67;;;;;;;-0.55;100.00;151229.81;5059302;28;20438;-75
2021/12/10 06:07:30;;;;;;;9.07;5.60;;;;;;;-0.54;100.00;151233.69;5044258;28;20455;-75
2021/12/10 06:10:08;;;;;;;9.10;6.53;;;;;;;-0.52;100.00;151238.81;5057965;28;20803;-75
2021/12/10 06:12:46;;;;;;;9.60;5.30;;;;;;;-0.52;100.00;151238.81;5090913;28;20442;-75
2021/12/10 06:15:23;;;;;;;8.03;5.20;;;;;;;-0.44;100.00;151258.03;5065683;28;20441;-75
2021/12/10 06:18:00;;;;;;;9.13;4.97;;;;;;;-0.40;100.00;151269.63;5097318;28;20816;-75
2021/12/10 06:20:46;;;;;;;7.80;4.77;;;;;;;-0.41;100.00;151267.03;5066856;28;20438;-75
2021/12/10 06:23:23;;;;;;;9.00;5.50;;;;;;;-0.37;100.00;151276.03;5060971;28;20793;-75
2021/12/10 06:25:58;;;;;;;7.70;4.20;;;;;;;-0.46;100.00;151254.22;5061774;28;20471;-75
2021/12/10 06:28:35;;;;;;;7.67;5.00;;;;;;;-0.52;100.00;151238.81;5084377;28;20457;-75
2021/12/10 06:31:15;;;;;;;7.30;5.40;;;;;;;-0.58;100.00;151223.41;5098148;27;20505;-75
2021/12/10 06:33:54;;;;;;;9.50;5.37;;;;;;;-0.57;100.00;151226.00;5072939;28;20786;-75
2021/12/10 06:36:30;;;;;;;6.90;4.80;;;;;;;-0.44;100.00;151259.34;5090250;28;20434;-75
2021/12/10 06:39:06;;;;;;;8.07;5.30;;;;;;;-0.39;100.00;151270.88;5073693;28;20429;-75
2021/12/10 06:41:42;;;;;;;8.67;5.10;;;;;;;-0.47;100.00;151250.34;5056249;28;20525;-75
2021/12/10 06:44:18;;;;;;;9.47;5.70;;;;;;;-0.35;100.00;151281.16;5062922;28;20514;-75
2021/12/10 06:46:53;;;;;;;6.87;4.97;;;;;;;-0.51;100.00;151241.41;5058687;28;20461;-75
2021/12/10 06:49:31;;;;;;;9.17;5.70;;;;;;;-0.36;100.00;151279.88;5058643;28;20831;-75
2021/12/10 06:52:07;;;;;;;9.37;5.50;;;;;;;-0.43;100.00;151261.94;5092018;28;20465;-75
2021/12/10 06:54:43;;;;;;;8.10;5.57;;;;;;;-0.45;100.00;151256.75;5078471;28;20450;-75
2021/12/10 06:57:19;;;;;;;8.53;6.40;;;;;;;-0.47;100.00;151251.63;5064117;28;20440;-75
2021/12/10 06:59:55;;;;;;;10.23;6.10;;;;;;;-0.45;100.00;151255.50;5051798;28;20469;-75
2021/12/10 07:02:31;;;;;;;8.13;5.43;;;;;;;-0.40;100.00;151269.63;5057358;28;20444;-75
2021/12/10 07:05:08;;;;;;;9.70;5.07;;;;;;;-0.33;100.00;151286.28;5066107;28;20446;-75
2021/12/10 07:07:45;;;;;;;10.00;5.53;;;;;;;-0.36;100.00;151279.88;5094032;28;20794;-75
2021/12/10 07:10:21;;;;;;;9.33;6.10;;;;;;;-0.40;100.00;151269.63;5090168;28;20439;-75
2021/12/10 07:12:56;;;;;;;7.37;5.07;;;;;;;-0.38;100.00;151273.44;5079412;28;20447;-75
2021/12/10 07:15:32;;;;;;;8.03;5.40;;;;;;;-0.41;100.00;151265.75;5065404;28;20450;-75
2021/12/10 07:18:08;;;;;;;9.20;5.67;;;;;;;-0.46;100.00;151254.22;5066414;28;20461;-75
2021/12/10 07:20:45;;;;;;;7.70;4.57;;;;;;;-0.33;100.00;151287.56;5052894;28;20439;-75
2021/12/10 07:23:22;;;;;;;10.50;6.23;;;;;;;-0.41;100.00;151267.03;5091317;28;20459;-75
2021/12/10 07:25:57;;;;;;;7.10;4.90;;;;;;;-0.42;100.00;151264.47;5070949;28;20473;-75
2021/12/10 07:28:33;;;;;;;8.63;5.37;;;;;;;-0.28;100.00;151300.41;5054222;28;20459;-75
2021/12/10 07:31:09;;;;;;;7.43;4.50;;;;;;;-0.26;100.00;151305.50;5105133;28;20457;-75
2021/12/10 07:33:45;;;;;;;7.63;4.73;;;;;;;-0.19;100.00;151322.22;5039014;28;20458;-75
2021/12/10 07:36:22;;;;;;;8.63;5.23;;;;;;;-0.26;100.00;151305.50;5085331;28;20825;-75
2021/12/10 07:38:59;;;;;;;8.80;5.60;;;;;;;-0.28;100.00;151300.41;5085016;28;20453;-75
2021/12/10 07:41:35;;;;;;;9.37;5.33;;;;;;;-0.19;100.00;151322.22;5058103;28;20794;-75
2021/12/10 07:44:11;;;;;;;7.70;5.20;;;;;;;-0.11;100.00;151342.75;5092063;28;20554;-75
2021/12/10 07:46:48;;;;;;;6.03;4.67;;;;;;;-0.05;100.00;151358.09;5090356;28;20497;-75
2021/12/10 07:49:28;;;;;;;6.07;4.57;;;;;;;-0.11;99.88;151344.00;5087672;28;20441;-75
2021/12/10 07:52:15;;;;;;;8.37;5.70;;;;;;;-0.14;99.66;151336.34;5081712;28;20534;-75
2021/12/10 07:54:51;;;;;;;11.03;5.70;;;;;;;-0.13;99.19;151338.88;5090317;28;20446;-75
2021/12/10 07:57:27;;;;;;;20.20;10.40;;;;;;;-0.02;98.58;151365.81;5037975;28;20483;-75
2021/12/10 08:00:04;;;;;;;8.50;5.20;;;;;;;0.03;97.36;151377.41;5057959;28;20454;-75
2021/12/10 08:02:49;;;;;;;6.10;4.33;;;;;;;0.14;96.04;151405.59;5064754;28;20453;-75
2021/12/10 08:05:26;;;;;;;6.20;4.30;;;;;;;0.10;95.77;151396.63;5077557;28;20453;-75
2021/12/10 08:08:05;;;;;;;9.37;6.23;;;;;;;0.08;95.80;151390.22;5076287;28;20450;-75
2021/12/10 08:10:45;;;;;;;8.13;5.37;;;;;;;0.11;95.67;151397.94;5050691;28;21126;-75
2021/12/10 08:13:22;;;;;;;5.53;4.50;;;;;;;0.13;97.44;151404.34;5082407;28;20544;-75
2021/12/10 08:15:58;;;;;;;7.13;5.10;;;;;;;0.14;95.59;151406.88;5057635;28;20979;-75
2021/12/10 08:18:33;;;;;;;7.23;6.03;;;;;;;0.19;94.44;151419.72;5101203;28;20454;-75
2021/12/10 08:21:09;;;;;;;5.70;4.73;;;;;;;0.19;94.92;151418.41;5087121;28;20529;-75
2021/12/10 08:23:46;;;;;;;6.07;4.40;;;;;;;0.20;95.58;151422.28;5100689;28;20450;-75
2021/12/10 08:26:23;;;;;;;7.63;5.10;;;;;;;0.20;95.57;151422.28;5073981;28;20834;-75
2021/12/10 08:28:58;;;;;;;7.37;4.77;;;;;;;0.25;96.97;151435.13;5052771;28;20810;-75
2021/12/10 08:31:34;;;;;;;8.93;5.27;;;;;;;0.29;97.47;151444.13;5070999;28;20821;-75
2021/12/10 08:34:10;;;;;;;7.10;4.93;;;;;;;0.35;98.20;151459.50;5069379;28;20461;-75
2021/12/10 08:36:46;;;;;;;7.33;4.60;;;;;;;0.33;97.95;151455.66;5052085;28;20788;-76
2021/12/10 08:39:23;;;;;;;8.90;4.47;;;;;;;0.37;97.41;151465.91;5106450;28;20438;-75
2021/12/10 08:41:58;;;;;;;5.70;4.50;;;;;;;0.36;96.45;151463.38;5103640;28;20487;-75
2021/12/10 08:44:35;;;;;;;7.30;4.80;;;;;;;0.37;96.25;151465.91;5064782;28;20491;-75
2021/12/10 08:47:12;;;;;;;5.03;3.33;;;;;;;0.42;98.59;151477.50;5069095;28;20476;-76
2021/12/10 08:49:47;;;;;;;4.20;3.40;;;;;;;0.44;97.50;151483.91;5050207;28;20454;-75
2021/12/10 08:52:23;;;;;;;4.40;3.20;;;;;;;0.49;98.62;151496.75;5065451;28;20452;-75
2021/12/10 08:55:00;;;;;;;4.73;3.23;;;;;;;0.54;98.45;151508.28;5058250;28;20949;-75
2021/12/10 08:57:40;;;;;;;7.00;4.70;;;;;;;0.56;97.19;151513.41;5080976;27;20445;-75
2021/12/10 09:00:20;;;;;;;10.50;4.70;;;;;;;0.59;99.45;151521.13;5062431;28;20798;-75
2021/12/10 09:02:57;;;;;;;4.90;4.30;;;;;;;0.61;99.87;151526.25;5067507;28;20543;-76
2021/12/10 09:05:33;;;;;;;5.20;4.37;;;;;;;0.66;100.00;151539.13;5093631;28;20450;-75
2021/12/10 09:08:09;;;;;;;9.07;4.80;;;;;;;0.69;100.00;151546.78;5066099;28;20564;-75
2021/12/10 09:10:46;;;;;;;5.90;4.20;;;;;;;0.71;99.07;151550.66;5066937;28;20449;-76
2021/12/10 09:13:24;;;;;;;6.37;4.70;;;;;;;0.76;98.65;151563.50;5064095;28;20455;-76
2021/12/10 09:16:05;;;;;;;5.80;4.47;;;;;;;0.78;97.86;151569.91;5047886;28;20534;-76
2021/12/10 09:18:40;;;;;;;5.47;3.63;;;;;;;0.85;97.69;151587.88;5061821;28;20450;-76
2021/12/10 09:21:16;;;;;;;5.20;4.27;;;;;;;0.84;96.01;151585.34;5062888;28;20485;-76
2021/12/10 09:23:56;;;;;;;5.57;3.70;;;;;;;0.89;96.51;151596.88;5041559;28;20458;-75
2021/12/10 09:26:35;;;;;;;5.07;3.43;;;;;;;0.88;96.63;151595.59;5087825;28;20553;-76
2021/12/10 09:29:12;;;;;;;5.03;3.63;;;;;;;0.91;96.56;151603.31;5046875;28;20464;-76
2021/12/10 09:31:48;;;;;;;5.93;3.37;;;;;;;0.96;98.16;151616.16;5093938;28;20516;-76
2021/12/10 09:34:23;;;;;;;5.80;3.37;;;;;;;0.94;96.02;151611.03;5051820;28;20466;-76
2021/12/10 09:36:59;;;;;;;4.53;4.00;;;;;;;0.97;96.12;151617.44;5038244;28;20563;-75
2021/12/10 09:39:36;;;;;;;3.97;3.20;;;;;;;0.99;95.03;151623.84;5036018;28;20795;-75
2021/12/10 09:42:14;;;;;;;6.40;3.60;;;;;;;1.01;94.60;151628.97;5049469;28;20457;-76
2021/12/10 09:44:51;;;;;;;3.13;2.83;;;;;;;1.03;94.75;151632.88;5104022;28;20457;-76
2021/12/10 09:47:26;;;;;;;3.63;3.00;;;;;;;1.03;92.72;151634.09;5071296;28;20480;-76
2021/12/10 09:50:04;;;;;;;4.63;3.37;;;;;;;1.08;93.70;151647.00;5040464;28;20854;-76
2021/12/10 09:52:40;;;;;;;4.33;3.10;;;;;;;1.16;95.40;151667.56;5054708;28;20450;-75
2021/12/10 09:55:17;;;;;;;4.40;3.43;;;;;;;1.17;95.84;151670.09;5067427;28;20442;-76
2021/12/10 09:57:57;;;;;;;5.10;3.40;;;;;;;1.18;95.64;151672.69;5035777;28;20506;-76
2021/12/10 10:00:36;;;;;;;3.80;3.40;;;;;;;1.19;96.91;151675.22;5097121;27;20453;-76
2021/12/10 10:03:13;;;;;;;5.40;3.37;;;;;;;1.22;94.72;151682.94;5058765;28;20932;-76
2021/12/10 10:05:49;;;;;;;4.80;2.57;;;;;;;1.26;95.77;151690.66;5065342;28;20454;-76
2021/12/10 10:08:25;;;;;;;3.00;2.40;;;;;;;1.29;94.68;151698.38;5082678;28;20886;-76
2021/12/10 10:11:10;;;;;;;3.67;2.90;;;;;;;1.32;94.89;151706.06;5084767;28;20925;-76
2021/12/10 10:13:49;;;;;;;4.37;2.70;;;;;;;1.34;94.44;151711.19;5063951;28;20887;-76
2021/12/10 10:16:26;;;;;;;3.53;2.70;;;;;;;1.42;92.16;151733.06;5038035;28;20813;-76
2021/12/10 10:19:05;;;;;;;6.47;2.87;;;;;;;1.44;92.03;151736.88;5053642;28;20493;-76
2021/12/10 10:21:44;;;;;;;2.83;2.53;;;;;;;1.51;86.70;151756.16;5050185;28;20457;-76
2021/12/10 10:24:20;;;;;;;3.70;2.43;;;;;;;1.55;85.49;151765.16;5091862;28;20961;-76
2021/12/10 10:26:59;;;;;;;3.93;2.70;;;;;;;1.64;85.60;151788.31;5085777;28;20475;-76
2021/12/10 10:29:39;;;;;;;3.23;1.97;;;;;;;1.73;84.91;151811.41;5072495;28;20450;-76
2021/12/10 10:32:17;;;;;;;3.60;2.53;;;;;;;1.73;83.05;151812.72;5047254;28;20531;-76
2021/12/10 10:34:58;;;;;;;4.33;2.40;;;;;;;1.71;82.44;151806.28;5070253;28;20435;-76
2021/12/10 10:37:34;;;;;;;2.80;2.27;;;;;;;1.75;82.28;151817.84;5044717;28;20449;-76
2021/12/10 10:40:15;;;;;;;4.50;2.53;;;;;;;1.73;81.96;151811.41;5089398;28;20450;-76
2021/12/10 10:42:51;;;;;;;2.33;2.10;;;;;;;1.77;82.14;151821.72;5054369;28;20483;-76
2021/12/10 10:45:32;;;;;;;2.50;2.10;;;;;;;1.83;81.29;151837.13;5074160;28;20488;-76
2021/12/10 10:48:08;;;;;;;3.83;2.17;;;;;;;1.88;81.48;151849.97;5093021;28;20819;-76
2021/12/10 10:50:49;;;;;;;2.27;1.67;;;;;;;1.94;80.26;151864.09;5098034;28;20455;-76
2021/12/10 10:53:28;;;;;;;2.70;1.83;;;;;;;2.02;80.01;151885.97;5058197;28;20455;-76
2021/12/10 10:56:07;;;;;;;3.00;1.83;;;;;;;2.05;77.20;151893.69;5038261;28;20444;-76
2021/12/10 10:58:45;;;;;;;2.73;1.57;;;;;;;2.06;77.97;151896.28;5066930;28;20548;-76
2021/12/10 11:01:26;;;;;;;1.93;1.73;;;;;;;2.07;80.93;151897.53;5058639;28;20447;-76
2021/12/10 11:04:05;;;;;;;4.20;2.00;;;;;;;2.03;78.17;151888.56;5090954;28;20456;-76
2021/12/10 11:06:43;;;;;;;3.03;1.37;;;;;;;2.05;78.20;151892.41;5087244;28;20467;-76
2021/12/10 11:09:21;;;;;;;1.73;1.23;;;;;;;2.06;81.00;151895.00;5041999;28;20451;-76
2021/12/10 11:11:59;;;;;;;2.30;1.23;;;;;;;2.04;80.34;151891.09;5075717;28;20448;-76
2021/12/10 11:14:37;;;;;;;2.03;1.30;;;;;;;2.25;71.93;151945.09;5056911;28;20454;-76
2021/12/10 11:17:18;;;;;;;2.03;1.20;;;;;;;2.38;71.32;151977.28;5056725;28;20804;-76
2021/12/10 11:19:56;;;;;;;1.90;1.33;;;;;;;2.32;74.01;151963.13;5071549;28;20775;-76
2021/12/10 11:22:32;;;;;;;2.27;1.40;;;;;;;2.23;76.87;151939.97;5073795;28;20879;-76
2021/12/10 11:25:13;;;;;;;1.90;1.30;;;;;;;2.24;76.47;151941.25;5049269;28;20550;-76
2021/12/10 11:27:49;;;;;;;1.50;1.13;;;;;;;2.25;76.27;151945.09;5072644;28;20869;-76
2021/12/10 11:30:26;;;;;;;5.20;2.30;;;;;;;2.21;76.12;151933.53;5098185;28;20473;-76
2021/12/10 11:33:10;;;;;;;3.93;2.10;;;;;;;2.30;75.09;151956.72;5071463;28;20490;-76
2021/12/10 11:35:48;;;;;;;2.20;0.87;;;;;;;2.27;73.54;151950.28;5067967;28;20437;-76
2021/12/10 11:38:28;;;;;;;2.63;1.30;;;;;;;2.30;73.04;151957.94;5104937;28;20562;-76
2021/12/10 11:41:06;;;;;;;3.27;1.83;;;;;;;2.27;77.30;151950.28;5038620;28;20450;-76
2021/12/10 11:43:52;;;;;;;1.47;1.07;;;;;;;2.25;76.93;151945.09;5067105;28;20858;-76
2021/12/10 11:46:43;;;;;;;1.53;1.10;;;;;;;2.18;79.66;151927.13;5062542;28;20454;-75
2021/12/10 11:49:24;;;;;;;2.50;1.30;;;;;;;2.16;80.51;151921.97;5071875;28;20442;-75
2021/12/10 11:52:03;;;;;;;0.97;0.83;;;;;;;2.20;81.77;151932.25;5098376;28;20447;-75
2021/12/10 11:54:40;;;;;;;0.90;0.70;;;;;;;2.05;86.75;151893.69;5057540;28;20434;-75
2021/12/10 11:57:18;;;;;;;1.60;1.20;;;;;;;1.87;91.52;151846.13;5090665;28;20445;-75
2021/12/10 11:59:57;;;;;;;1.30;0.70;;;;;;;1.78;92.51;151824.25;5057850;28;20443;-76
2021/12/10 12:02:34;;;;;;;2.27;1.40;;;;;;;1.65;94.89;151790.84;5092890;28;20449;-75
2021/12/10 12:05:13;;;;;;;3.07;1.40;;;;;;;1.54;96.46;151763.88;5058646;28;20443;-76
2021/12/10 12:07:49;;;;;;;1.97;1.47;;;;;;;1.55;97.57;151766.47;5043897;28;20479;-75
2021/12/10 12:10:30;;;;;;;1.77;1.40;;;;;;;1.49;99.05;151749.72;5100024;28;20441;-75
2021/12/10 12:13:20;;;;;;;3.30;1.90;;;;;;;1.35;100.00;151713.78;5059887;28;20449;-76
2021/12/10 12:15:57;;;;;;;2.13;1.73;;;;;;;1.26;100.00;151690.66;5089074;28;20455;-75
2021/12/10 12:18:36;;;;;;;2.97;1.70;;;;;;;1.21;100.00;151680.41;5044539;28;20953;-75
2021/12/10 12:27:16;;;;;;;2.77;2.10;;;;;;;1.16;100.00;151666.25;5083018;28;20465;-75